Ayvalik, Turkey

5:07 PM EET on March 28, 2015 (GMT +0200)
Pligoni / Mitilini / Lesvos - SV8DTD | | Change Station
CLOSE
Current Station
Personal Weather Station
Location: Ελλάδα,
Elevation: 131 ft
Nearby Weather Stations

Elev 131 ft 39.07 °N, 26.58 °E | Updated 7 seconds ago

Mostly Cloudy
Mostly Cloudy
57.7 °F
Feels Like 57.7 °F
N
5.0
Wind Variable Wind from South
Gusts 9.0 mph

Today
High -- | Low -- °F
--% Chance of Precip.
Yesterday
High -- | Low -- °F
Precip. -- in
6:04 AM 6:32 PM
Waxing Gibbous, 63% visible
Pressure 29.65 in
Visibility 6.2 miles
Clouds Few 2000 ft
Scattered Clouds 2500 ft
Mostly Cloudy 8000 ft
Dew Point 52 °F
Humidity 82%
Rainfall 0.18 in
Snow Depth Not available.
UV 1.0 out of 12
Pollen Not available.
Air Quality Not available.
Flu Activity Not available.
METAR LGMT 281450Z 19007KT 9999 FEW020TCU SCT025 BKN080 14/11 Q1004

More Conditions Fewer Conditions

Pressure 29.65 in
Visibility 6.2 miles
Clouds Few 2000 ft
Scattered Clouds 2500 ft
Mostly Cloudy 8000 ft
Dew Point 52 °F
Humidity 82%
Rainfall 0.18 in
Snow Depth Not available.
UV 1.0 out of 12
Pollen Not available.
Air Quality Not available.
Flu Activity Not available.
METAR LGMT 281450Z 19007KT 9999 FEW020TCU SCT025 BKN080 14/11 Q1004

More Conditions Fewer Conditions

10-Day Weather Forecast

Almanac

Astronomy

Mar. 28, 2015 Rise Set
Actual Time
Civil Twilight
Nautical Twilight
Astronomical Twilight
Moon
Length of Visible Light
Length of Day
Tomorrow will be .
, % of the Moon is Illuminated

Today's Extremes

Country Highs Country Lows

Community

WunderPhotos

Upload Photos

1,809,008 photos uploaded!

WunderBlogs® & News

Nearby

Air Quality

  Air Quality AQ Index Pollutant
Not available.

Snow Depth

Station Depth Elevation

Earthquake Activity

City Distance Mag. Time & Date
Minimum magnitude displayed is 2.5.

Coastal Water Temperatures

Place Temperature

Stations

Nearby Weather Stations

Station Location Temp. Windchill Dew Point Humidity Wind Precip. Elev Updated Type